Time;durP1;ratioP1;P1;durP2;ratioP2;P2;SDS_P1;SDS_P2;PMS_P1;PMS_P2;Temp;Humidity;BMP_temperature;BMP_pressure;BME280_temperature;BME280_humidity;BME280_pressure;Samples;Min_cycle;Max_cycle;Signal;HPM_P1;HPM_P2
2022/04/23 00:01:35;;;;;;;9.98;6.57;;;;;;;14.41;55.55;98705.56;5110878;28;20106;-38
2022/04/23 00:04:01;;;;;;;11.55;6.75;;;;;;;14.48;55.42;98710.69;5110509;28;20086;-38
2022/04/23 00:06:27;;;;;;;10.02;6.72;;;;;;;14.54;55.12;98703.50;5110685;28;20031;-38
2022/04/23 00:08:52;;;;;;;13.35;6.50;;;;;;;14.65;54.92;98699.91;5110477;28;20020;-37
2022/04/23 00:11:17;;;;;;;10.65;6.93;;;;;;;14.75;54.10;98709.88;5110565;28;20102;-38
2022/04/23 00:13:43;;;;;;;13.70;6.60;;;;;;;14.68;55.61;98710.09;5110381;28;20523;-38
2022/04/23 00:16:10;;;;;;;12.82;7.10;;;;;;;14.64;55.26;98717.84;5110461;28;20551;-38
2022/04/23 00:18:36;;;;;;;11.45;6.38;;;;;;;14.81;55.28;98714.19;5110596;28;20027;-38
2022/04/23 00:21:03;;;;;;;11.05;6.65;;;;;;;14.75;55.18;98715.22;5110246;28;20020;-38
2022/04/23 00:23:31;;;;;;;12.50;6.40;;;;;;;14.60;55.63;98715.91;5110545;28;20019;-38
2022/04/23 00:25:58;;;;;;;14.98;6.72;;;;;;;14.34;56.23;98712.97;5110363;28;20610;-38
2022/04/23 00:28:24;;;;;;;12.30;6.60;;;;;;;14.42;56.53;98707.16;5110620;28;20051;-38
2022/04/23 00:30:52;;;;;;;10.10;6.00;;;;;;;14.46;55.49;98707.47;5110415;28;20020;-38
2022/04/23 00:33:18;;;;;;;10.82;5.95;;;;;;;14.40;55.45;98713.84;5110416;28;20110;-38
2022/04/23 00:35:44;;;;;;;10.77;6.47;;;;;;;14.38;56.27;98716.75;5110253;28;20020;-37
2022/04/23 00:38:10;;;;;;;10.90;6.20;;;;;;;14.35;56.33;98703.88;5110592;28;20501;-38
2022/04/23 00:40:38;;;;;;;10.93;6.53;;;;;;;14.36;55.84;98702.81;5110279;28;20031;-38
2022/04/23 00:43:10;;;;;;;9.82;6.18;;;;;;;14.10;56.98;98717.00;5110060;28;20044;-38
2022/04/23 00:45:35;;;;;;;13.63;6.20;;;;;;;14.11;57.65;98716.75;5110174;28;20074;-37
2022/04/23 00:48:01;;;;;;;11.27;6.22;;;;;;;14.15;57.45;98717.88;5110394;28;20055;-38
2022/04/23 00:50:26;;;;;;;11.05;6.82;;;;;;;14.18;57.37;98720.03;5110526;28;20035;-38
2022/04/23 00:53:02;;;;;;;11.43;6.70;;;;;;;14.17;57.78;98712.28;5110419;28;20027;-38
2022/04/23 00:55:31;;;;;;;13.18;6.68;;;;;;;14.25;57.05;98711.81;5110218;28;20510;-39
2022/04/23 00:57:57;;;;;;;10.25;6.70;;;;;;;14.18;57.35;98701.28;5110167;28;20437;-38
2022/04/23 01:00:23;;;;;;;11.63;7.22;;;;;;;14.20;57.55;98719.78;5110028;28;20056;-38
2022/04/23 01:02:48;;;;;;;11.10;6.82;;;;;;;14.03;58.21;98715.34;5109666;28;20074;-38
2022/04/23 01:05:14;;;;;;;13.45;6.38;;;;;;;13.92;58.03;98715.47;5111043;28;20126;-38
2022/04/23 01:07:43;;;;;;;12.95;6.88;;;;;;;13.90;58.29;98718.41;5113986;28;20072;-38
2022/04/23 01:10:10;;;;;;;10.35;6.70;;;;;;;13.96;58.57;98724.63;5113407;28;20054;-38
2022/04/23 01:12:36;;;;;;;11.52;6.60;;;;;;;14.02;57.92;98718.25;5113632;28;20444;-37
2022/04/23 01:15:09;;;;;;;14.02;6.18;;;;;;;13.85;58.96;98718.34;5113331;28;20489;-38
2022/04/23 01:17:36;;;;;;;14.32;6.43;;;;;;;13.87;58.53;98711.66;5113745;28;20023;-38
2022/04/23 01:20:13;;;;;;;12.13;6.32;;;;;;;13.81;59.15;98715.34;5113598;28;20490;-38
2022/04/23 01:22:40;;;;;;;9.57;6.30;;;;;;;13.96;58.36;98722.75;5113742;28;20020;-38
2022/04/23 01:25:08;;;;;;;14.25;7.03;;;;;;;14.04;58.13;98724.16;5113339;28;20144;-38
2022/04/23 01:27:34;;;;;;;13.35;6.68;;;;;;;14.07;58.33;98718.31;5113852;28;20430;-37
2022/04/23 01:30:04;;;;;;;13.13;6.53;;;;;;;14.02;58.19;98727.09;5113259;28;20016;-38
2022/04/23 01:32:29;;;;;;;;;;;;;;;14.15;58.30;98731.25;5114151;28;20054;-37
2022/04/23 01:34:54;;;;;;;15.60;6.25;;;;;;;13.88;58.84;98733.91;5113164;28;19961;-37
2022/04/23 01:37:20;;;;;;;12.80;6.00;;;;;;;13.53;59.53;98744.94;5113514;28;20438;-38
2022/04/23 01:39:49;;;;;;;9.02;5.65;;;;;;;13.12;60.24;98734.47;5113846;28;20094;-38
2022/04/23 01:42:19;;;;;;;8.00;5.70;;;;;;;12.99;61.17;98724.09;5113852;28;20046;-38
2022/04/23 01:44:49;;;;;;;8.85;5.95;;;;;;;13.20;59.96;98720.69;5113406;28;20744;-37
2022/04/23 01:47:14;;;;;;;11.30;5.38;;;;;;;13.27;59.70;98720.53;5113354;28;20047;-38
2022/04/23 01:49:41;;;;;;;9.75;5.60;;;;;;;13.36;59.53;98708.34;5113715;28;20160;-37
2022/04/23 01:52:07;;;;;;;6.88;5.50;;;;;;;13.43;59.17;98733.03;5113809;28;20105;-38
2022/04/23 01:54:34;;;;;;;9.65;5.85;;;;;;;13.43;59.45;98733.03;5113535;28;20475;-38
2022/04/23 01:57:00;;;;;;;7.95;5.72;;;;;;;13.33;59.70;98732.09;5113410;28;20050;-37
2022/04/23 01:59:25;;;;;;;9.45;6.40;;;;;;;13.34;59.84;98731.84;5113353;28;20028;-37
2022/04/23 02:01:51;;;;;;;10.45;6.43;;;;;;;13.23;60.42;98730.88;5113255;28;20030;-37
2022/04/23 02:04:17;;;;;;;11.88;6.43;;;;;;;13.28;60.41;98740.81;5113310;28;20048;-37
2022/04/23 02:06:43;;;;;;;10.13;6.30;;;;;;;13.14;60.00;98745.69;5112921;28;20103;-37
2022/04/23 02:09:09;;;;;;;9.63;6.38;;;;;;;13.01;60.06;98741.50;5113656;28;20035;-37
2022/04/23 02:11:34;;;;;;;9.80;6.50;;;;;;;13.21;59.67;98745.53;5113773;28;20383;-37
2022/04/23 02:14:02;;;;;;;12.63;6.18;;;;;;;12.70;61.11;98740.22;5113103;28;20122;-37
2022/04/23 02:16:28;;;;;;;11.35;6.45;;;;;;;12.92;60.20;98748.28;5112568;28;20474;-37
2022/04/23 02:18:54;;;;;;;7.90;6.28;;;;;;;13.01;60.50;98751.38;5112009;28;20030;-37
2022/04/23 02:21:19;;;;;;;9.32;6.28;;;;;;;13.11;59.94;98754.19;5112972;28;20391;-37
2022/04/23 02:23:45;;;;;;;8.75;5.88;;;;;;;13.20;59.42;98744.72;5112878;28;20027;-37
2022/04/23 02:26:10;;;;;;;10.82;5.85;;;;;;;13.13;59.94;98751.28;5113050;28;20023;-37
2022/04/23 02:28:38;;;;;;;9.52;6.30;;;;;;;13.02;60.09;98745.78;5112624;28;20548;-37
2022/04/23 02:31:05;;;;;;;8.88;6.43;;;;;;;13.08;60.21;98773.41;5113014;28;20076;-37
2022/04/23 02:33:30;;;;;;;8.77;5.93;;;;;;;13.14;59.94;98769.75;5112988;28;20027;-37
2022/04/23 02:35:56;;;;;;;11.52;6.72;;;;;;;13.00;60.63;98768.44;5112840;28;20020;-37
2022/04/23 02:38:21;;;;;;;11.05;6.35;;;;;;;13.03;59.96;98768.75;5112426;28;20016;-37
2022/04/23 02:40:46;;;;;;;9.65;6.20;;;;;;;13.07;60.02;98772.56;5112948;28;20022;-37
2022/04/23 02:43:15;;;;;;;8.30;5.70;;;;;;;13.09;60.11;98783.81;5112755;28;20043;-37
2022/04/23 02:45:41;;;;;;;11.38;5.97;;;;;;;13.33;59.33;98774.84;5112268;28;20024;-37
2022/04/23 02:48:10;;;;;;;11.68;6.20;;;;;;;13.00;60.16;98785.25;5112730;28;20030;-37
2022/04/23 02:50:37;;;;;;;8.32;6.00;;;;;;;12.71;61.37;98777.31;5112360;28;20051;-37
2022/04/23 02:53:06;;;;;;;8.32;6.07;;;;;;;12.67;60.83;98789.53;5112199;28;20129;-37
2022/04/23 02:55:33;;;;;;;8.85;6.20;;;;;;;12.82;61.03;98794.31;5112164;28;20099;-37
2022/04/23 02:58:04;;;;;;;10.13;6.68;;;;;;;13.00;59.94;98792.47;5111867;28;20056;-37
2022/04/23 03:00:29;;;;;;;9.85;6.15;;;;;;;13.16;59.51;98791.69;5111578;28;20219;-37
2022/04/23 03:02:55;;;;;;;8.88;6.28;;;;;;;13.03;59.43;98790.13;5112608;28;20159;-37
2022/04/23 03:05:21;;;;;;;10.85;6.78;;;;;;;12.77;61.17;98790.75;5111842;28;20131;-37
2022/04/23 03:07:50;;;;;;;11.10;6.70;;;;;;;12.81;60.13;98792.72;5112324;28;20027;-37
2022/04/23 03:10:18;;;;;;;9.35;7.18;;;;;;;12.89;60.00;98804.88;5111848;28;20429;-37
2022/04/23 03:12:44;;;;;;;9.98;6.97;;;;;;;12.75;60.42;98812.34;5111446;28;20019;-37
2022/04/23 03:15:17;;;;;;;10.35;6.68;;;;;;;12.68;60.83;98809.84;5111659;28;20451;-37
2022/04/23 03:17:44;;;;;;;13.02;7.00;;;;;;;12.75;59.71;98812.34;5112507;28;20106;-37
2022/04/23 03:20:12;;;;;;;10.35;7.13;;;;;;;12.81;60.08;98826.59;5111844;28;20035;-37
2022/04/23 03:22:38;;;;;;;12.65;6.93;;;;;;;12.12;61.65;98835.44;5111830;28;20023;-37
2022/04/23 03:25:05;;;;;;;11.85;6.90;;;;;;;12.18;61.75;98844.34;5111897;28;20031;-37
2022/04/23 03:27:31;;;;;;;9.65;6.88;;;;;;;12.25;61.95;98839.72;5111179;28;20020;-37
2022/04/23 03:30:00;;;;;;;8.73;6.53;;;;;;;12.08;61.86;98832.44;5111659;28;20020;-37
2022/04/23 03:32:26;;;;;;;12.27;6.93;;;;;;;11.82;62.92;98835.56;5111833;28;20030;-37
2022/04/23 03:34:51;;;;;;;10.25;6.85;;;;;;;11.79;62.61;98841.38;5110667;28;20110;-37
2022/04/23 03:37:17;;;;;;;14.52;6.97;;;;;;;11.69;63.90;98844.63;5111434;28;20106;-37
2022/04/23 03:39:43;;;;;;;12.32;6.95;;;;;;;12.08;62.77;98843.09;5111140;28;20023;-37
2022/04/23 03:42:09;;;;;;;9.70;6.28;;;;;;;12.16;62.53;98833.91;5111408;28;20015;-37
2022/04/23 03:44:34;;;;;;;11.15;6.70;;;;;;;12.05;62.93;98830.25;5110976;28;20026;-37
2022/04/23 03:47:03;;;;;;;10.82;7.03;;;;;;;12.42;60.66;98823.75;5111277;28;20036;-37
2022/04/23 03:49:32;;;;;;;11.23;7.05;;;;;;;12.57;61.00;98820.56;5111163;28;20035;-38
2022/04/23 03:51:58;;;;;;;11.48;6.80;;;;;;;12.77;60.16;98820.94;5111208;28;20024;-38
2022/04/23 03:54:24;;;;;;;12.45;7.05;;;;;;;12.84;59.64;98810.91;5110740;28;20038;-38
2022/04/23 03:56:49;;;;;;;14.18;7.40;;;;;;;13.05;59.08;98808.59;5111256;28;20459;-38
2022/04/23 03:59:20;;;;;;;11.77;7.07;;;;;;;13.06;58.89;98813.69;5111235;28;20097;-38
2022/04/23 04:01:47;;;;;;;11.52;7.15;;;;;;;13.41;58.89;98817.19;5111308;28;20035;-38
2022/04/23 04:04:14;;;;;;;12.23;7.18;;;;;;;13.47;58.99;98821.56;5110670;28;20107;-38
2022/04/23 04:06:39;;;;;;;12.75;6.72;;;;;;;13.36;58.37;98819.78;5111041;28;20133;-38
2022/04/23 04:09:05;;;;;;;11.27;6.93;;;;;;;13.64;57.20;98813.53;5111064;28;20027;-38
2022/04/23 04:12:01;;;;;;;10.55;6.90;;;;;;;13.78;57.15;98816.66;5111302;28;20152;-38
2022/04/23 04:14:16;;;;;;;15.77;6.60;;;;;;;14.18;56.40;98826.25;5110314;28;20081;-38
2022/04/23 04:16:42;;;;;;;11.40;6.53;;;;;;;14.42;55.62;98830.28;5111059;28;20455;-38
2022/04/23 04:19:08;;;;;;;11.32;6.88;;;;;;;14.66;55.45;98827.38;5092206;28;20076;-37
2022/04/23 04:21:33;;;;;;;14.27;7.20;;;;;;;14.57;54.77;98815.50;5111303;28;20019;-38
2022/04/23 04:23:59;;;;;;;13.00;6.85;;;;;;;14.87;53.65;98804.25;5110384;28;20032;-38
2022/04/23 04:26:25;;;;;;;11.10;5.75;;;;;;;15.20;52.97;98813.91;5110295;28;20360;-38
2022/04/23 04:28:50;;;;;;;10.18;6.40;;;;;;;15.42;52.69;98815.66;5110848;28;20082;-38
2022/04/23 04:34:14;;;;;;;14.45;6.47;;;;;;;16.15;51.43;98809.66;5086842;28;20388;-39
2022/04/23 04:36:39;;;;;;;10.15;6.03;;;;;;;16.03;53.36;98805.31;5110475;28;20028;-38
2022/04/23 04:39:05;;;;;;;9.55;6.13;;;;;;;16.60;51.44;98819.75;5112348;28;20031;-38
2022/04/23 04:41:31;;;;;;;37.35;26.33;;;;;;;16.89;50.96;98821.16;5115369;28;20023;-38
2022/04/23 04:43:57;;;;;;;47.10;30.17;;;;;;;17.30;49.96;98813.09;5114588;28;20617;-39
2022/04/23 04:46:23;;;;;;;26.42;16.75;;;;;;;17.77;48.34;98795.78;5114589;28;20034;-38
2022/04/23 04:48:49;;;;;;;23.70;16.02;;;;;;;18.28;46.53;98809.09;5114970;28;20019;-38
2022/04/23 04:51:15;;;;;;;10.43;5.90;;;;;;;18.41;45.30;98815.78;5114685;28;20027;-39
2022/04/23 04:53:40;;;;;;;9.75;5.45;;;;;;;18.45;45.75;98811.44;5114403;28;20027;-39
2022/04/23 04:56:07;;;;;;;10.88;5.38;;;;;;;18.73;45.27;98807.22;5114598;28;20043;-38
2022/04/23 04:58:33;;;;;;;7.50;4.40;;;;;;;19.00;44.04;98807.84;5114730;28;20019;-38
2022/04/23 05:00:58;;;;;;;10.75;4.70;;;;;;;19.30;43.79;98804.91;5114287;28;20495;-39
2022/04/23 05:03:25;;;;;;;8.20;4.50;;;;;;;19.61;43.44;98812.72;5114670;28;20080;-38
2022/04/23 05:05:51;;;;;;;9.05;4.75;;;;;;;19.61;44.04;98828.09;5114324;28;20411;-38
2022/04/23 05:08:17;;;;;;;9.80;5.13;;;;;;;20.13;43.10;98825.69;5113889;28;20420;-38
2022/04/23 05:10:42;;;;;;;13.38;7.50;;;;;;;19.96;43.36;98823.44;5114358;28;20022;-38
2022/04/23 05:13:08;;;;;;;14.23;7.93;;;;;;;20.59;41.25;98819.69;5114061;28;20479;-38
2022/04/23 05:15:33;;;;;;;8.57;5.30;;;;;;;20.92;40.58;98820.56;5113880;28;20131;-38
2022/04/23 05:17:59;;;;;;;9.15;4.68;;;;;;;21.20;39.08;98816.06;5114047;28;20016;-38
2022/04/23 05:20:24;;;;;;;12.73;7.38;;;;;;;21.00;40.77;98816.38;5114146;28;20492;-38
2022/04/23 05:22:49;;;;;;;12.77;5.28;;;;;;;20.79;39.86;98818.59;5114061;28;20032;-38
2022/04/23 05:25:15;;;;;;;19.65;11.93;;;;;;;20.77;40.42;98823.50;5113793;28;20047;-38
2022/04/23 05:27:40;;;;;;;15.98;9.35;;;;;;;20.76;40.48;98825.41;5113903;28;20027;-38
2022/04/23 05:30:07;;;;;;;10.65;6.70;;;;;;;20.81;40.67;98833.44;5113613;28;20023;-38
2022/04/23 05:32:32;;;;;;;12.65;8.18;;;;;;;20.96;40.74;98835.13;5110101;28;20495;-38
2022/04/23 05:34:57;;;;;;;10.70;6.72;;;;;;;20.22;43.35;98832.84;5113253;27;20028;-38
2022/04/23 05:37:23;;;;;;;12.70;6.65;;;;;;;20.00;44.79;98843.38;5112867;28;20027;-38
2022/04/23 05:39:48;;;;;;;11.63;6.30;;;;;;;20.30;47.57;98823.31;5112713;28;20592;-38
2022/04/23 05:42:14;;;;;;;16.15;7.18;;;;;;;20.98;44.65;98859.13;5112744;28;20024;-38
2022/04/23 05:44:39;;;;;;;14.05;9.48;;;;;;;20.92;41.92;98861.13;5112722;28;20028;-38
2022/04/23 05:47:05;;;;;;;18.60;10.25;;;;;;;19.75;43.81;98856.06;5113039;28;20024;-38
2022/04/23 05:49:30;;;;;;;14.65;9.10;;;;;;;19.42;46.94;98865.75;5112863;28;20031;-38
2022/04/23 05:51:56;;;;;;;16.15;8.88;;;;;;;19.92;45.16;98864.50;5111641;28;20466;-38
2022/04/23 05:54:22;;;;;;;15.50;8.38;;;;;;;20.13;45.13;98877.00;5112666;28;20378;-38
2022/04/23 05:56:47;;;;;;;10.77;7.75;;;;;;;20.81;42.54;98870.47;5112509;28;20027;-38
2022/04/23 05:59:12;;;;;;;12.75;7.32;;;;;;;21.31;41.99;98870.03;5112716;28;20099;-38
2022/04/23 06:01:38;;;;;;;12.05;6.80;;;;;;;22.02;40.20;98863.34;5112483;28;20038;-38
2022/04/23 06:04:04;;;;;;;9.95;6.40;;;;;;;22.75;38.71;98868.13;5112089;28;20169;-38
2022/04/23 06:06:29;;;;;;;10.65;6.55;;;;;;;23.20;38.13;98868.19;5112414;28;20530;-36
2022/04/23 06:08:54;;;;;;;10.82;6.38;;;;;;;23.15;37.77;98868.31;5112048;28;20150;-38
2022/04/23 06:11:20;;;;;;;11.18;6.03;;;;;;;23.62;38.03;98874.22;5102441;28;20472;-35
2022/04/23 06:13:45;;;;;;;7.75;5.20;;;;;;;23.68;35.73;98872.19;5098256;28;20402;-38
2022/04/23 06:16:11;;;;;;;7.70;4.70;;;;;;;23.97;35.39;98879.84;5103049;28;20034;-38
2022/04/23 06:18:36;;;;;;;9.55;5.28;;;;;;;24.26;35.04;98873.09;5112073;28;20027;-37
2022/04/23 06:21:01;;;;;;;7.22;5.05;;;;;;;24.31;34.77;98878.38;5111738;28;20043;-37
2022/04/23 06:23:27;;;;;;;6.90;5.00;;;;;;;24.47;34.68;98884.19;5106800;28;20027;-50
2022/04/23 06:25:52;;;;;;;7.78;4.43;;;;;;;24.64;34.46;98888.91;5111599;28;20031;-50
2022/04/23 06:28:18;;;;;;;7.75;4.80;;;;;;;23.78;36.89;98889.03;5094227;28;20024;-48
2022/04/23 06:30:43;;;;;;;8.05;5.00;;;;;;;24.22;35.75;98885.69;5091658;28;20422;-37
2022/04/23 06:33:09;;;;;;;11.93;5.10;;;;;;;24.38;35.07;98892.31;5109121;28;20027;-37
2022/04/23 06:35:34;;;;;;;10.00;4.80;;;;;;;24.61;38.56;98889.53;5111902;28;20037;-38
2022/04/23 06:38:01;;;;;;;11.38;6.10;;;;;;;24.66;37.08;98884.72;5112051;28;20046;-38
2022/04/23 06:40:26;;;;;;;11.13;5.93;;;;;;;25.19;37.12;98882.84;5111901;28;20023;-37
2022/04/23 06:42:52;;;;;;;48.30;15.00;;;;;;;25.43;37.35;98884.28;5111436;28;20461;-38
2022/04/23 06:45:19;;;;;;;11.98;7.05;;;;;;;25.16;35.97;98886.19;5110826;28;20024;-36
2022/04/23 06:47:44;;;;;;;17.52;10.52;;;;;;;25.11;34.07;98875.47;5111287;28;20427;-35
2022/04/23 06:50:10;;;;;;;19.83;9.18;;;;;;;25.20;38.32;98884.41;5111414;28;20465;-37
2022/04/23 06:52:35;;;;;;;14.45;7.03;;;;;;;25.65;38.88;98894.97;5111177;28;20060;-37
2022/04/23 06:55:02;;;;;;;16.52;8.43;;;;;;;25.32;33.69;98895.50;5111104;28;20023;-38
2022/04/23 06:57:28;;;;;;;11.57;7.38;;;;;;;25.20;34.56;98894.53;5111798;28;20045;-36
2022/04/23 06:59:54;;;;;;;14.48;8.10;;;;;;;25.28;38.25;98901.91;5111161;28;20508;-37
2022/04/23 07:02:19;;;;;;;13.02;6.90;;;;;;;25.20;36.76;98902.69;5110489;28;20104;-37
2022/04/23 07:04:45;;;;;;;27.27;9.65;;;;;;;25.36;37.94;98893.75;5111077;28;20504;-37
2022/04/23 07:07:11;;;;;;;11.25;6.65;;;;;;;25.09;35.81;98896.75;5111367;28;20027;-37
2022/04/23 07:09:39;;;;;;;15.60;7.50;;;;;;;25.27;38.06;98892.16;5111125;28;20098;-37
2022/04/23 07:12:05;;;;;;;29.03;8.57;;;;;;;25.62;40.71;98897.53;5111333;28;20038;-37
2022/04/23 07:14:32;;;;;;;30.27;21.50;;;;;;;25.77;37.77;98897.00;5110856;28;20501;-37
2022/04/23 07:16:58;;;;;;;42.13;15.73;;;;;;;26.10;39.43;98905.44;5111450;28;20023;-38
2022/04/23 07:19:24;;;;;;;13.93;4.78;;;;;;;25.40;34.91;98906.69;5111285;28;20023;-37
2022/04/23 07:21:49;;;;;;;11.63;4.95;;;;;;;24.39;37.91;98905.59;5110850;28;20328;-39
2022/04/23 07:24:15;;;;;;;8.55;4.63;;;;;;;24.85;35.99;98908.13;5111002;28;20031;-37
2022/04/23 07:26:41;;;;;;;8.40;4.40;;;;;;;25.25;36.51;98911.53;5110964;28;20027;-38
2022/04/23 07:29:09;;;;;;;6.55;4.40;;;;;;;25.38;36.05;98914.38;5111352;28;20148;-37
2022/04/23 07:31:35;;;;;;;7.78;4.93;;;;;;;26.05;35.17;98919.25;5111101;28;20039;-37
2022/04/23 07:39:29;;;;;;;9.02;4.35;;;;;;;26.22;35.02;98915.66;5110496;28;20367;-38
2022/04/23 07:41:55;;;;;;;9.43;5.97;;;;;;;27.06;36.78;98917.75;5110845;28;20024;-37
2022/04/23 07:44:22;;;;;;;8.82;5.53;;;;;;;27.41;37.66;98904.59;5110370;28;20531;-37
2022/04/23 07:46:48;;;;;;;8.65;4.80;;;;;;;26.79;36.22;98903.47;5110267;28;20114;-37
2022/04/23 07:49:13;;;;;;;8.07;4.28;;;;;;;26.46;34.46;98908.78;5100663;28;20111;-36
2022/04/23 07:51:40;;;;;;;23.35;16.05;;;;;;;26.83;36.04;98898.97;5101897;28;20444;-37
2022/04/23 07:54:06;;;;;;;11.98;7.90;;;;;;;26.94;33.24;98907.56;5103858;28;20024;-52
2022/04/23 07:56:31;;;;;;;10.00;5.95;;;;;;;26.80;34.58;98913.25;5100556;28;20100;-53
2022/04/23 07:58:56;;;;;;;10.30;5.38;;;;;;;26.85;35.57;98904.09;5089760;28;20129;-52
2022/04/23 08:01:22;;;;;;;9.35;5.65;;;;;;;26.71;35.10;98905.13;5089613;28;20047;-52
2022/04/23 08:03:47;;;;;;;7.68;4.45;;;;;;;27.06;32.26;98907.59;5089855;28;20047;-52
2022/04/23 08:06:13;;;;;;;7.07;4.28;;;;;;;26.53;33.14;98909.84;5089917;28;20028;-52
2022/04/23 08:08:39;;;;;;;6.93;3.85;;;;;;;27.02;31.85;98908.63;5089583;28;20120;-50
2022/04/23 08:11:06;;;;;;;8.55;4.18;;;;;;;26.63;31.83;98907.91;5089530;28;20494;-53
2022/04/23 08:13:32;;;;;;;7.43;4.20;;;;;;;26.77;31.69;98911.22;5088992;28;20099;-52
2022/04/23 08:15:59;;;;;;;6.05;3.88;;;;;;;26.41;31.35;98909.78;5089493;28;20107;-53
2022/04/23 08:18:26;;;;;;;6.95;3.65;;;;;;;27.04;31.01;98909.88;5089805;28;20035;-51
2022/04/23 08:20:51;;;;;;;7.10;3.90;;;;;;;27.11;32.32;98912.88;5089343;28;20509;-53
2022/04/23 08:23:18;;;;;;;6.50;3.70;;;;;;;27.38;32.47;98918.13;5089665;28;20055;-51
2022/04/23 08:25:45;;;;;;;6.43;3.50;;;;;;;27.81;32.30;98914.16;5089473;28;20022;-50
2022/04/23 08:30:55;;;;;;;6.90;3.45;;;;;;;28.20;32.47;98910.03;5103746;28;20051;-53
2022/04/23 08:33:21;;;;;;;7.00;3.50;;;;;;;27.87;30.23;98910.06;5110269;28;20098;-50
2022/04/23 08:35:47;;;;;;;8.45;3.50;;;;;;;28.40;30.64;98907.53;5109376;28;20428;-52
2022/04/23 08:38:12;;;;;;;5.47;3.47;;;;;;;28.26;29.88;98899.66;5109454;28;20020;-52
2022/04/23 08:40:44;;;;;;;7.05;3.63;;;;;;;26.95;31.74;98897.44;5109317;28;20514;-51
2022/04/23 08:43:10;;;;;;;6.72;3.58;;;;;;;28.00;29.82;98894.53;5109595;28;20042;-52
2022/04/23 08:45:37;;;;;;;4.18;3.30;;;;;;;28.39;29.91;98895.00;5109083;28;20221;-49
2022/04/23 08:48:12;;;;;;;5.35;3.17;;;;;;;27.88;31.36;98887.06;5109428;28;20038;-52
2022/04/23 08:50:39;;;;;;;4.00;3.10;;;;;;;28.80;29.71;98885.72;5109298;28;20602;-53
2022/04/23 08:53:13;;;;;;;6.63;3.40;;;;;;;28.79;29.19;98875.13;5109612;28;20020;-50
2022/04/23 08:55:41;;;;;;;7.15;3.15;;;;;;;28.70;29.42;98877.19;5109260;28;20020;-53
2022/04/23 08:58:06;;;;;;;4.07;3.20;;;;;;;28.34;28.61;98878.81;5109712;28;20080;-52
2022/04/23 09:00:32;;;;;;;6.95;3.30;;;;;;;28.26;28.86;98878.56;5109441;28;20076;-53
2022/04/23 09:02:57;;;;;;;5.63;3.25;;;;;;;28.88;29.07;98883.97;5109409;28;20019;-53
2022/04/23 09:05:27;;;;;;;5.45;3.40;;;;;;;29.17;28.24;98880.16;5109385;28;20044;-52
2022/04/23 09:07:54;;;;;;;5.55;3.13;;;;;;;29.23;28.28;98877.97;5109543;28;20697;-53
2022/04/23 09:10:20;;;;;;;4.65;3.20;;;;;;;29.43;28.37;98870.66;5109551;28;20020;-52
2022/04/23 09:12:58;;;;;;;7.13;3.33;;;;;;;29.67;27.85;98872.47;5109328;28;20103;-53
2022/04/23 09:24:09;;;;;;;5.35;3.20;;;;;;;28.19;29.79;98855.69;5109610;28;20070;-52
2022/04/23 09:26:35;;;;;;;5.30;3.03;;;;;;;27.85;30.19;98868.63;5109781;28;20530;-53
2022/04/23 09:29:12;;;;;;;5.25;3.30;;;;;;;28.02;30.03;98871.16;5110011;28;20031;-52
2022/04/23 09:31:38;;;;;;;5.95;3.17;;;;;;;27.21;30.35;98848.84;5112738;28;20011;-54
2022/04/23 09:34:17;;;;;;;4.00;2.90;;;;;;;28.17;29.83;98860.69;5112233;28;20098;-50
2022/04/23 09:36:50;;;;;;;6.03;2.92;;;;;;;28.24;28.62;98855.47;5109651;28;20479;-53
2022/04/23 09:39:28;;;;;;;6.78;3.22;;;;;;;28.52;28.46;98852.84;5112367;28;20027;-55
2022/04/23 09:42:09;;;;;;;6.45;3.10;;;;;;;28.37;29.34;98857.03;5111146;28;20024;-53
2022/04/23 09:44:34;;;;;;;7.25;3.03;;;;;;;27.84;28.94;98851.41;5111287;28;20129;-53
2022/04/23 09:47:00;;;;;;;4.85;2.90;;;;;;;27.78;28.79;98847.31;5112663;28;20015;-53
2022/04/23 09:49:25;;;;;;;5.68;2.85;;;;;;;27.97;29.01;98841.31;5112461;28;20037;-53
2022/04/23 09:52:05;;;;;;;5.75;2.90;;;;;;;28.51;28.33;98842.19;5111739;28;20038;-52
2022/04/23 09:54:31;;;;;;;4.32;2.80;;;;;;;28.84;28.04;98831.88;5111250;28;20044;-54
2022/04/23 09:56:57;;;;;;;6.45;3.10;;;;;;;29.44;27.11;98831.19;5111547;28;20036;-53
2022/04/23 09:59:23;;;;;;;5.43;3.10;;;;;;;29.76;26.19;98823.78;5112342;28;20433;-54
2022/04/23 10:01:50;;;;;;;7.97;3.10;;;;;;;29.70;26.83;98824.38;5112454;28;20028;-52
2022/04/23 10:04:24;;;;;;;6.88;2.80;;;;;;;29.51;26.81;98822.31;5112362;28;20126;-53
2022/04/23 10:06:51;;;;;;;6.15;3.00;;;;;;;29.83;26.50;98825.91;5112676;28;20027;-53
2022/04/23 10:09:19;;;;;;;6.22;2.72;;;;;;;30.39;24.46;98822.94;5107700;28;20111;-52
2022/04/23 10:11:48;;;;;;;5.68;2.90;;;;;;;28.56;25.73;98814.59;5100964;28;20028;-53
2022/04/23 10:14:22;;;;;;;5.22;2.80;;;;;;;27.74;26.52;98805.41;5092123;28;20498;-38
2022/04/23 10:16:49;;;;;;;4.63;2.60;;;;;;;27.92;27.15;98808.75;5099410;28;20032;-38
2022/04/23 10:19:15;;;;;;;8.13;2.85;;;;;;;28.21;26.54;98809.63;5092355;28;20501;-38
2022/04/23 10:21:53;;;;;;;8.10;2.50;;;;;;;28.83;25.76;98811.13;5102768;28;20028;-38
2022/04/23 10:25:03;;;;;;;8.25;2.63;;;;;;;29.15;26.74;98802.22;5112227;28;20395;-35
2022/04/23 10:27:29;;;;;;;4.93;2.70;;;;;;;29.28;25.96;98808.44;5087524;28;20483;-36
2022/04/23 10:29:56;;;;;;;5.40;3.13;;;;;;;29.87;25.01;98801.31;5112840;28;20027;-36
2022/04/23 10:32:24;;;;;;;5.88;2.83;;;;;;;29.72;25.61;98802.88;5112133;28;20027;-37
2022/04/23 10:34:49;;;;;;;7.68;2.80;;;;;;;30.25;24.08;98805.31;5108388;28;20046;-37
2022/04/23 10:37:20;;;;;;;8.02;2.60;;;;;;;30.54;23.84;98798.53;5103285;28;20020;-37
2022/04/23 10:40:05;;;;;;;7.70;2.65;;;;;;;31.06;23.12;98802.75;5112146;28;20107;-37
2022/04/23 10:42:32;;;;;;;7.32;2.50;;;;;;;31.22;23.48;98796.38;5111941;28;20027;-37
2022/04/23 10:45:06;;;;;;;5.10;2.60;;;;;;;31.81;22.86;98795.03;5111459;28;20106;-37
2022/04/23 10:47:34;;;;;;;7.93;2.80;;;;;;;31.41;22.62;98793.56;5112292;28;20028;-37
2022/04/23 10:50:16;;;;;;;7.65;2.85;;;;;;;32.04;21.92;98794.22;5112166;28;20027;-37
2022/04/23 10:52:42;;;;;;;11.00;6.50;;;;;;;32.24;22.47;98786.66;5112281;28;20027;-37
2022/04/23 10:55:09;;;;;;;29.33;18.73;;;;;;;31.83;23.51;98787.22;5111797;28;20037;-37
2022/04/23 10:57:35;;;;;;;4.93;2.40;;;;;;;31.05;22.78;98778.38;5112313;28;20054;-37
2022/04/23 11:00:16;;;;;;;7.78;2.80;;;;;;;31.14;23.05;98784.44;5111828;28;20023;-37
2022/04/23 11:02:45;;;;;;;10.73;2.55;;;;;;;31.14;21.66;98779.75;5111905;28;20047;-37
2022/04/23 11:13:53;;;;;;;10.25;2.40;;;;;;;32.64;21.34;98786.03;5111751;28;20628;-53
2022/04/23 11:16:22;;;;;;;8.45;2.70;;;;;;;32.82;21.55;98780.72;5111811;28;20402;-52
2022/04/23 11:18:55;;;;;;;9.20;2.53;;;;;;;33.03;20.42;98760.09;5111809;28;20072;-54
2022/04/23 11:21:30;;;;;;;8.65;2.45;;;;;;;32.86;19.38;98778.00;5111150;28;20027;-53
2022/04/23 11:23:58;;;;;;;6.43;2.50;;;;;;;32.49;20.20;98775.97;5111278;28;20114;-52
2022/04/23 11:26:44;;;;;;;10.60;2.80;;;;;;;32.95;19.86;98774.97;5111392;28;20504;-52
2022/04/23 11:29:10;;;;;;;6.65;2.22;;;;;;;32.69;19.83;98773.88;5111446;28;20034;-53
2022/04/23 11:31:36;;;;;;;7.28;2.40;;;;;;;32.34;20.55;98772.25;5111568;28;20031;-53
2022/04/23 11:34:03;;;;;;;11.68;2.80;;;;;;;32.11;20.45;98766.81;5110862;28;20027;-53
2022/04/23 11:36:32;;;;;;;9.57;2.78;;;;;;;32.13;19.64;98776.28;5111219;28;20019;-53
2022/04/23 11:39:00;;;;;;;8.55;2.53;;;;;;;32.60;19.46;98770.66;5111557;28;20031;-53
2022/04/23 11:41:26;;;;;;;12.00;2.78;;;;;;;32.52;19.70;98769.75;5111558;28;20020;-53
2022/04/23 11:43:51;;;;;;;6.60;2.47;;;;;;;32.64;19.86;98777.00;5110436;28;20042;-53
2022/04/23 11:46:16;;;;;;;26.50;17.27;;;;;;;32.37;24.60;98770.69;5110903;28;20031;-53
2022/04/23 11:48:47;;;;;;;7.78;2.70;;;;;;;30.92;20.81;98764.84;5110356;28;20028;-53
2022/04/23 11:51:14;;;;;;;7.28;2.67;;;;;;;30.92;21.20;98764.84;5111126;28;20098;-52
2022/04/23 11:54:06;;;;;;;10.02;3.00;;;;;;;31.11;20.37;98760.44;5110577;28;20028;-54
2022/04/23 11:56:33;;;;;;;13.07;2.75;;;;;;;31.66;21.07;98769.28;5105761;28;20040;-53
2022/04/23 11:59:09;;;;;;;10.18;2.60;;;;;;;32.13;19.98;98764.50;5110070;28;20129;-52